Time;durP1;ratioP1;P1;durP2;ratioP2;P2;SDS_P1;SDS_P2;PMS_P1;PMS_P2;Temp;Humidity;BMP_temperature;BMP_pressure;BME280_temperature;BME280_humidity;BME280_pressure;Samples;Min_cycle;Max_cycle;Signal;HPM_P1;HPM_P2
2023/06/24 00:00:43;;;;;;;;;;;;;;;24.77;46.71;102150.50;5059688;28;20232;-82
2023/06/24 00:03:08;;;;;;;;;;;;;;;24.76;46.68;102148.88;5082233;28;19963;-82
2023/06/24 00:05:34;;;;;;;;;;;;;;;24.76;46.64;102153.56;5061601;28;20068;-81
2023/06/24 00:08:02;;;;;;;;;;;;;;;24.75;46.67;102157.41;5070001;28;19973;-82
2023/06/24 00:10:27;;;;;;;;;;;;;;;24.74;46.72;102164.84;5075253;28;19924;-82
2023/06/24 00:12:53;;;;;;;;;;;;;;;24.74;46.57;102159.34;5070215;28;20132;-82
2023/06/24 00:15:18;;;;;;;;;;;;;;;24.74;46.48;102170.31;5075746;28;20363;-82
2023/06/24 00:17:43;;;;;;;;;;;;;;;24.71;46.56;102171.75;5084560;28;19924;-81
2023/06/24 00:20:10;;;;;;;;;;;;;;;24.71;46.53;102166.25;5076788;28;19943;-82
2023/06/24 00:22:36;;;;;;;;;;;;;;;24.69;46.40;102168.50;5061993;28;19924;-82
2023/06/24 00:25:01;;;;;;;;;;;;;;;24.68;46.42;102166.09;5078620;28;19942;-82
2023/06/24 00:27:27;;;;;;;;;;;;;;;24.66;46.38;102173.81;5077017;28;19924;-82
2023/06/24 00:29:52;;;;;;;;;;;;;;;24.63;46.60;102166.22;5070471;28;19924;-82
2023/06/24 00:32:17;;;;;;;;;;;;;;;24.61;46.62;102169.25;5080357;28;20026;-82
2023/06/24 00:34:43;;;;;;;;;;;;;;;24.61;46.57;102172.00;5081301;28;19927;-82
2023/06/24 00:37:09;;;;;;;;;;;;;;;24.60;46.58;102169.56;5078892;28;19920;-82
2023/06/24 00:39:34;;;;;;;;;;;;;;;24.60;46.52;102180.53;5078735;28;19925;-82
2023/06/24 00:42:00;;;;;;;;;;;;;;;24.59;46.57;102178.88;5074725;28;19978;-82
2023/06/24 00:44:27;;;;;;;;;;;;;;;24.57;46.47;102173.72;5082549;28;19920;-82
2023/06/24 00:46:53;;;;;;;;;;;;;;;24.56;46.48;102171.28;5066494;28;19959;-82
2023/06/24 00:49:19;;;;;;;;;;;;;;;24.57;46.46;102172.91;5086219;28;19962;-82
2023/06/24 00:51:50;;;;;;;;;;;;;;;24.55;46.37;102178.69;5085990;28;20392;-82
2023/06/24 00:54:16;;;;;;;;;;;;;;;24.53;46.61;102180.13;5086315;28;19916;-82
2023/06/24 00:56:43;;;;;;;;;;;;;;;24.50;46.55;102175.25;5083764;28;20299;-82
2023/06/24 00:59:10;;;;;;;;;;;;;;;24.47;46.67;102167.66;5087795;28;20370;-82
2023/06/24 01:01:35;;;;;;;;;;;;;;;24.42;46.66;102176.81;5080884;28;20388;-83
2023/06/24 01:04:01;;;;;;;;;;;;;;;24.36;46.42;102176.09;5087702;28;19974;-82
2023/06/24 01:06:30;;;;;;;;;;;;;;;24.32;46.65;102177.81;5084525;28;19938;-82
2023/06/24 01:08:56;;;;;;;;;;;;;;;24.28;46.71;102174.06;5086580;28;20547;-82
2023/06/24 01:11:23;;;;;;;;;;;;;;;24.25;46.80;102180.16;5088262;28;19928;-82
2023/06/24 01:13:49;;;;;;;;;;;;;;;24.23;46.75;102184.28;5086531;28;20444;-82
2023/06/24 01:16:20;;;;;;;;;;;;;;;24.19;46.69;102184.09;5084201;28;19921;-82
2023/06/24 01:18:54;;;;;;;;;;;;;;;24.15;46.63;102185.00;5084576;28;19924;-82
2023/06/24 01:21:40;;;;;;;;;;;;;;;24.10;46.68;102177.72;5087314;28;19970;-81
2023/06/24 01:24:35;;;;;;;;;;;;;;;24.01;46.72;102176.78;5081155;28;19971;-82
2023/06/24 01:27:09;;;;;;;;;;;;;;;23.92;46.72;102182.19;5009830;28;19925;-82
2023/06/24 01:29:54;;;;;;;;;;;;;;;23.87;46.71;102178.72;5083191;28;19916;-82
2023/06/24 01:32:23;;;;;;;;;;;;;;;23.80;46.84;102179.94;5068639;28;19916;-82
2023/06/24 01:34:48;;;;;;;;;;;;;;;23.74;46.92;102181.16;5086627;28;19951;-82
2023/06/24 01:37:18;;;;;;;;;;;;;;;23.68;46.89;102176.06;5070557;28;20532;-82
2023/06/24 01:39:56;;;;;;;;;;;;;;;23.61;47.00;102170.19;5085884;28;19966;-82
2023/06/24 01:42:21;;;;;;;;;;;;;;;23.53;47.05;102174.41;5092110;28;20048;-81
2023/06/24 01:44:48;;;;;;;;;;;;;;;23.48;47.00;102160.78;5086018;28;20375;-82
2023/06/24 01:47:15;;;;;;;;;;;;;;;23.44;47.15;102165.25;5085623;28;19962;-82
2023/06/24 01:49:42;;;;;;;;;;;;;;;23.40;47.17;102165.03;5085167;28;19943;-82
2023/06/24 01:52:08;;;;;;;;;;;;;;;23.37;47.15;102162.09;5086815;28;20323;-82
2023/06/24 01:54:34;;;;;;;;;;;;;;;23.36;47.33;102163.22;5086411;28;19920;-82
2023/06/24 01:57:02;;;;;;;;;;;;;;;23.36;47.33;102160.47;5084826;28;20090;-82
2023/06/24 01:59:29;;;;;;;;;;;;;;;23.38;47.28;102166.47;5084847;28;19966;-82
2023/06/24 02:01:55;;;;;;;;;;;;;;;23.40;47.25;102153.28;5086101;28;20456;-82
2023/06/24 02:04:20;;;;;;;;;;;;;;;23.40;46.92;102161.50;5080529;28;19970;-82
2023/06/24 02:06:47;;;;;;;;;;;;;;;23.38;47.18;102163.72;5083539;28;20388;-82
2023/06/24 02:09:13;;;;;;;;;;;;;;;23.39;47.20;102162.59;5089128;28;19916;-82
2023/06/24 02:11:39;;;;;;;;;;;;;;;23.39;47.13;102159.88;5085771;28;20551;-82
2023/06/24 02:14:05;;;;;;;;;;;;;;;23.38;47.12;102155.53;5082812;28;19928;-82
2023/06/24 02:16:32;;;;;;;;;;;;;;;23.35;47.13;102161.59;5070629;28;19947;-82
2023/06/24 02:18:58;;;;;;;;;;;;;;;23.33;47.18;102159.13;5082953;28;20028;-82
2023/06/24 02:21:24;;;;;;;;;;;;;;;23.29;47.24;102152.66;5082424;28;20019;-82
2023/06/24 02:23:50;;;;;;;;;;;;;;;23.24;47.33;102160.13;5082444;28;20038;-82
2023/06/24 02:26:16;;;;;;;;;;;;;;;23.20;47.48;102154.47;5080813;28;19922;-83
2023/06/24 02:28:44;;;;;;;;;;;;;;;23.16;47.31;102143.31;5081608;28;19916;-82
2023/06/24 02:31:10;;;;;;;;;;;;;;;23.16;47.41;102146.06;5083023;28;19921;-81
2023/06/24 02:33:36;;;;;;;;;;;;;;;23.15;47.33;102140.84;5085799;28;19924;-83
2023/06/24 02:36:01;;;;;;;;;;;;;;;23.12;47.40;102145.00;5077207;28;20273;-82
2023/06/24 02:38:26;;;;;;;;;;;;;;;23.09;47.31;102142.06;5084354;28;19931;-82
2023/06/24 02:40:52;;;;;;;;;;;;;;;23.05;47.57;102147.31;5083589;28;19927;-82
2023/06/24 02:43:17;;;;;;;;;;;;;;;23.03;47.65;102146.81;5060437;28;19927;-82
2023/06/24 02:45:43;;;;;;;;;;;;;;;22.98;47.54;102141.44;5082549;28;19924;-82
2023/06/24 02:48:09;;;;;;;;;;;;;;;22.97;47.58;102156.19;5086739;28;20017;-83
2023/06/24 02:50:36;;;;;;;;;;;;;;;22.95;47.59;102160.31;5083249;28;19928;-82
2023/06/24 02:53:02;;;;;;;;;;;;;;;22.94;47.49;102156.78;5079848;28;19920;-82
2023/06/24 02:55:28;;;;;;;;;;;;;;;22.95;47.56;102169.34;5065928;28;19924;-82
2023/06/24 02:57:54;;;;;;;;;;;;;;;22.98;47.38;102173.38;5082581;28;20018;-82
2023/06/24 03:00:21;;;;;;;;;;;;;;;23.00;47.45;102179.41;5083789;28;19951;-83
2023/06/24 03:02:46;;;;;;;;;;;;;;;22.99;47.45;102169.56;5086338;28;20375;-82
2023/06/24 03:05:12;;;;;;;;;;;;;;;23.01;47.52;102184.56;5083947;28;19923;-82
2023/06/24 03:07:38;;;;;;;;;;;;;;;23.00;47.30;102182.94;5083307;28;20062;-83
2023/06/24 03:10:05;;;;;;;;;;;;;;;23.00;47.41;102188.41;5086015;28;20273;-82
2023/06/24 03:12:30;;;;;;;;;;;;;;;23.00;47.57;102188.41;5078972;28;19938;-82
2023/06/24 03:14:56;;;;;;;;;;;;;;;23.05;47.45;102199.25;5085092;28;20719;-82
2023/06/24 03:17:21;;;;;;;;;;;;;;;23.09;47.21;102197.53;5081770;28;19916;-82
2023/06/24 03:19:46;;;;;;;;;;;;;;;23.14;47.34;102193.91;5064994;28;19931;-82
2023/06/24 03:22:12;;;;;;;;;;;;;;;23.11;47.28;102194.50;5082475;28;19916;-82
2023/06/24 03:24:37;;;;;;;;;;;;;;;23.11;47.35;102197.25;5080547;28;19974;-82
2023/06/24 03:27:02;;;;;;;;;;;;;;;23.12;47.59;102202.41;5083802;28;19967;-82
2023/06/24 03:29:28;;;;;;;;;;;;;;;23.15;47.63;102199.06;5083725;28;19916;-82
2023/06/24 03:31:53;;;;;;;;;;;;;;;23.20;47.54;102200.94;5082505;28;20014;-82
2023/06/24 03:34:19;;;;;;;;;;;;;;;23.24;47.51;102203.88;5078677;28;19923;-82
2023/06/24 03:36:44;;;;;;;;;;;;;;;23.27;47.39;102206.03;5077091;28;19924;-82
2023/06/24 03:39:10;;;;;;;;;;;;;;;23.32;47.32;102205.94;5083400;28;20490;-82
2023/06/24 03:41:35;;;;;;;;;;;;;;;23.35;47.28;102210.81;5066430;28;19919;-82
2023/06/24 03:44:00;;;;;;;;;;;;;;;23.34;47.42;102210.00;5080638;28;19924;-83
2023/06/24 03:46:26;;;;;;;;;;;;;;;23.37;47.29;102214.88;5084354;28;19916;-82
2023/06/24 03:48:51;;;;;;;;;;;;;;;23.41;47.32;102209.63;5081748;28;20452;-82
2023/06/24 03:51:16;;;;;;;;;;;;;;;23.45;47.23;102207.91;5084672;28;20853;-82
2023/06/24 03:53:42;;;;;;;;;;;;;;;23.47;47.15;102217.44;5085109;28;19916;-82
2023/06/24 03:56:07;;;;;;;;;;;;;;;23.49;47.05;102214.38;5080390;28;19916;-82
2023/06/24 03:58:32;;;;;;;;;;;;;;;23.52;47.11;102216.53;5078588;28;19916;-83
2023/06/24 04:01:01;;;;;;;;;;;;;;;23.53;47.24;102218.16;5081380;28;19920;-83
2023/06/24 04:03:27;;;;;;;;;;;;;;;23.56;47.10;102216.75;5084494;28;19916;-82
2023/06/24 04:05:56;;;;;;;;;;;;;;;23.56;47.22;102223.03;5083483;28;19927;-82
2023/06/24 04:08:21;;;;;;;;;;;;;;;23.58;47.19;102215.38;5084342;28;19959;-82
2023/06/24 04:10:47;;;;;;;;;;;;;;;23.61;47.19;102225.72;5082396;28;19962;-82
2023/06/24 04:13:12;;;;;;;;;;;;;;;23.62;47.16;102219.13;5084873;28;20031;-82
2023/06/24 04:15:37;;;;;;;;;;;;;;;23.62;47.18;102224.59;5085786;28;20011;-83
2023/06/24 04:18:03;;;;;;;;;;;;;;;23.63;47.05;102214.47;5081023;28;20714;-83
2023/06/24 04:20:28;;;;;;;;;;;;;;;23.63;47.25;102226.22;5084140;28;19916;-82
2023/06/24 04:22:54;;;;;;;;;;;;;;;23.59;47.33;102218.91;5082604;28;20704;-82
2023/06/24 04:25:19;;;;;;;;;;;;;;;23.58;47.19;102228.25;5080600;28;19965;-82
2023/06/24 04:27:44;;;;;;;;;;;;;;;23.50;47.52;102222.28;5080126;28;19923;-82
2023/06/24 04:30:10;;;;;;;;;;;;;;;23.50;47.42;102221.47;5082563;28;19982;-82
2023/06/24 04:32:35;;;;;;;;;;;;;;;23.48;47.56;102220.97;5082368;28;20412;-82
2023/06/24 04:35:00;;;;;;;;;;;;;;;23.50;47.48;102226.94;5082873;28;19974;-82
2023/06/24 04:37:26;;;;;;;;;;;;;;;23.51;47.45;102223.09;5082162;28;19976;-82
2023/06/24 04:39:51;;;;;;;;;;;;;;;23.54;47.45;102219.78;5064982;28;19917;-82
2023/06/24 04:42:16;;;;;;;;;;;;;;;23.58;47.37;102215.38;5084230;28;20494;-82
2023/06/24 04:44:42;;;;;;;;;;;;;;;23.62;47.46;102212.84;5081994;28;19923;-82
2023/06/24 04:47:07;;;;;;;;;;;;;;;23.69;47.46;102219.53;5082673;28;19991;-82
2023/06/24 04:49:32;;;;;;;;;;;;;;;23.72;47.37;102216.22;5068689;28;19916;-81
2023/06/24 04:52:01;;;;;;;;;;;;;;;23.68;47.37;102219.84;5080966;28;19928;-82
2023/06/24 04:54:27;;;;;;;;;;;;;;;23.69;47.38;102225.00;5085395;28;20437;-83
2023/06/24 04:56:55;;;;;;;;;;;;;;;23.76;47.61;102225.44;5081581;28;19917;-82
2023/06/24 04:59:20;;;;;;;;;;;;;;;23.83;47.34;102233.25;5087035;28;19920;-83
2023/06/24 05:01:45;;;;;;;;;;;;;;;23.92;47.37;102241.59;5085795;28;20407;-82
2023/06/24 05:04:11;;;;;;;;;;;;;;;24.01;47.15;102234.28;5083380;28;20514;-82
2023/06/24 05:06:36;;;;;;;;;;;;;;;24.11;47.10;102240.38;5087930;28;19916;-83
2023/06/24 05:09:01;;;;;;;;;;;;;;;24.20;46.97;102245.16;5087629;28;19920;-82
2023/06/24 05:11:26;;;;;;;;;;;;;;;24.26;47.01;102239.28;5088153;28;19959;-82
2023/06/24 05:13:52;;;;;;;;;;;;;;;24.38;46.91;102239.59;5084545;28;20465;-82
2023/06/24 05:16:17;;;;;;;;;;;;;;;24.47;46.85;102241.63;5082367;28;19931;-83
2023/06/24 05:18:44;;;;;;;;;;;;;;;24.53;46.76;102243.13;5086740;28;19920;-82
2023/06/24 05:21:09;;;;;;;;;;;;;;;24.64;47.03;102250.03;5082713;28;19923;-82
2023/06/24 05:23:34;;;;;;;;;;;;;;;24.71;46.83;102243.00;5083922;28;19924;-82
2023/06/24 05:26:00;;;;;;;;;;;;;;;24.78;46.69;102245.34;5083972;28;19920;-82
2023/06/24 05:28:25;;;;;;;;;;;;;;;24.84;46.57;102246.03;5084760;28;19919;-82
2023/06/24 05:30:50;;;;;;;;;;;;;;;24.90;46.28;102253.00;5080599;28;19939;-83
2023/06/24 05:33:15;;;;;;;;;;;;;;;24.92;46.46;102246.09;5083448;28;19923;-82
2023/06/24 05:35:42;;;;;;;;;;;;;;;24.99;46.55;102254.75;5082805;28;19928;-83
2023/06/24 05:38:08;;;;;;;;;;;;;;;25.09;46.70;102259.19;5084379;28;20080;-82
2023/06/24 05:40:33;;;;;;;;;;;;;;;25.18;46.63;102267.50;5088851;28;20392;-82
2023/06/24 05:42:58;;;;;;;;;;;;;;;25.30;46.33;102265.00;5082661;28;19924;-83
2023/06/24 05:45:24;;;;;;;;;;;;;;;25.43;46.34;102258.66;5083987;28;19920;-83
2023/06/24 05:47:49;;;;;;;;;;;;;;;25.56;46.13;102263.25;5083874;28;20053;-83
2023/06/24 05:50:14;;;;;;;;;;;;;;;25.65;45.74;102262.50;5084318;28;20741;-82
2023/06/24 05:52:40;;;;;;;;;;;;;;;25.66;45.76;102261.38;5083504;28;19923;-83
2023/06/24 05:55:05;;;;;;;;;;;;;;;25.73;45.95;102259.03;5081249;28;20312;-84
2023/06/24 05:57:31;;;;;;;;;;;;;;;25.81;46.05;102261.00;5083274;28;19939;-83
2023/06/24 05:59:56;;;;;;;;;;;;;;;25.85;46.04;102251.84;5084775;28;20013;-82
2023/06/24 06:02:21;;;;;;;;;;;;;;;25.98;45.99;102258.34;5085441;28;19916;-83
2023/06/24 06:04:47;;;;;;;;;;;;;;;26.13;46.07;102260.69;5083247;28;19930;-83
2023/06/24 06:07:12;;;;;;;;;;;;;;;26.23;45.68;102261.53;5082523;28;20280;-83
2023/06/24 06:09:37;;;;;;;;;;;;;;;26.32;45.40;102270.63;5087915;28;19916;-83
2023/06/24 06:12:03;;;;;;;;;;;;;;;26.39;45.36;102270.97;5083166;28;19989;-83
2023/06/24 06:14:28;;;;;;;;;;;;;;;26.48;45.26;102277.31;5085024;28;20011;-83
2023/06/24 06:16:54;;;;;;;;;;;;;;;26.62;45.11;102278.00;5085620;28;19924;-83
2023/06/24 06:19:19;;;;;;;;;;;;;;;26.71;44.88;102273.34;5086331;28;19999;-83
2023/06/24 06:21:44;;;;;;;;;;;;;;;26.78;44.63;102273.69;5082952;28;19920;-82
2023/06/24 06:24:10;;;;;;;;;;;;;;;26.87;44.85;102278.38;5082960;28;19917;-82
2023/06/24 06:26:40;;;;;;;;;;;;;;;26.96;44.74;102274.50;5080553;28;20517;-83
2023/06/24 06:29:05;;;;;;;;;;;;;;;26.99;44.37;102284.06;5082803;28;19916;-82
2023/06/24 06:31:30;;;;;;;;;;;;;;;27.02;44.38;102286.19;5083738;28;19924;-82
2023/06/24 06:33:56;;;;;;;;;;;;;;;27.04;44.15;102279.22;5087256;28;20000;-83
2023/06/24 06:36:21;;;;;;;;;;;;;;;27.05;44.18;102274.53;5084162;28;20396;-83
2023/06/24 06:38:46;;;;;;;;;;;;;;;27.17;44.15;102276.66;5082674;28;19916;-82
2023/06/24 06:41:11;;;;;;;;;;;;;;;27.25;43.98;102279.38;5069738;28;19916;-82
2023/06/24 06:43:37;;;;;;;;;;;;;;;27.37;43.75;102282.31;5081719;28;20564;-83
2023/06/24 06:46:03;;;;;;;;;;;;;;;27.34;43.47;102282.16;5083119;28;20462;-83
2023/06/24 06:48:28;;;;;;;;;;;;;;;27.38;42.86;102272.91;5078960;28;19921;-83
2023/06/24 06:50:54;;;;;;;;;;;;;;;27.47;43.31;102278.41;5081287;28;19924;-82
2023/06/24 06:53:19;;;;;;;;;;;;;;;27.62;43.10;102275.13;5086907;28;19994;-82
2023/06/24 06:55:44;;;;;;;;;;;;;;;27.81;43.15;102279.50;5081968;28;19963;-83
2023/06/24 06:58:10;;;;;;;;;;;;;;;27.97;42.85;102273.13;5084133;28;19923;-82
2023/06/24 07:00:35;;;;;;;;;;;;;;;28.11;41.94;102269.34;5084643;28;19920;-82
2023/06/24 07:03:00;;;;;;;;;;;;;;;28.14;42.46;102271.44;5063821;28;19924;-82
2023/06/24 07:05:26;;;;;;;;;;;;;;;28.20;42.67;102265.44;5082014;28;19920;-82
2023/06/24 07:07:51;;;;;;;;;;;;;;;28.37;42.38;102264.56;5079139;28;20569;-82
2023/06/24 07:10:19;;;;;;;;;;;;;;;28.48;42.44;102264.97;5079446;28;19920;-83
2023/06/24 07:12:45;;;;;;;;;;;;;;;28.55;42.22;102270.81;5083861;28;20042;-83
2023/06/24 07:15:10;;;;;;;;;;;;;;;28.72;42.16;102269.84;5084343;28;20425;-83
2023/06/24 07:17:36;;;;;;;;;;;;;;;28.88;41.88;102271.72;5081081;28;20459;-83
2023/06/24 07:20:01;;;;;;;;;;;;;;;28.99;41.49;102283.16;5083619;28;20371;-83
2023/06/24 07:22:26;;;;;;;;;;;;;;;29.07;41.60;102290.56;5079833;28;19923;-83
2023/06/24 07:24:51;;;;;;;;;;;;;;;29.11;41.62;102280.47;5079217;28;19923;-82
2023/06/24 07:27:17;;;;;;;;;;;;;;;29.31;41.93;102275.28;5080202;28;19924;-83
2023/06/24 07:29:42;;;;;;;;;;;;;;;29.43;40.48;102278.06;5075064;28;20349;-82
2023/06/24 07:32:08;;;;;;;;;;;;;;;29.38;40.35;102281.03;5083062;28;19927;-83
2023/06/24 07:34:33;;;;;;;;;;;;;;;29.38;41.06;102281.03;5080048;28;20367;-82
2023/06/24 07:36:58;;;;;;;;;;;;;;;29.51;41.14;102284.69;5075630;28;19921;-85
2023/06/24 07:39:24;;;;;;;;;;;;;;;29.62;40.83;102278.38;5083817;28;19920;-82
2023/06/24 07:41:49;;;;;;;;;;;;;;;29.66;40.34;102279.34;5080905;28;19927;-82
2023/06/24 07:44:14;;;;;;;;;;;;;;;29.72;40.37;102280.72;5085415;28;20533;-82
2023/06/24 07:46:40;;;;;;;;;;;;;;;29.75;38.92;102293.03;5083302;28;20272;-83
2023/06/24 07:49:05;;;;;;;;;;;;;;;29.71;39.99;102287.41;5079398;28;20011;-81
2023/06/24 07:51:30;;;;;;;;;;;;;;;29.73;40.00;102287.06;5082440;28;20299;-82
2023/06/24 07:53:55;;;;;;;;;;;;;;;29.87;40.29;102286.75;5082807;28;20066;-81
2023/06/24 07:56:21;;;;;;;;;;;;;;;30.04;39.42;102295.69;5083516;28;19948;-81
2023/06/24 07:58:46;;;;;;;;;;;;;;;30.12;38.40;102295.91;5084335;28;20298;-83
2023/06/24 08:01:11;;;;;;;;;;;;;;;30.03;39.02;102305.09;5083847;28;19916;-82
2023/06/24 08:03:37;;;;;;;;;;;;;;;29.98;39.12;102310.84;5078841;28;19974;-82
2023/06/24 08:06:02;;;;;;;;;;;;;;;29.94;38.85;102309.09;5088214;28;20505;-82
2023/06/24 08:08:27;;;;;;;;;;;;;;;29.90;38.78;102302.63;5085642;28;19924;-81
2023/06/24 08:10:53;;;;;;;;;;;;;;;29.99;39.57;102297.84;5083140;28;19924;-81
2023/06/24 08:13:18;;;;;;;;;;;;;;;29.94;38.57;102314.63;5084633;28;19919;-82
2023/06/24 08:15:44;;;;;;;;;;;;;;;29.82;38.57;102317.38;5081965;28;19931;-81
2023/06/24 08:18:10;;;;;;;;;;;;;;;29.77;38.58;102316.41;5085977;28;19947;-81
2023/06/24 08:20:35;;;;;;;;;;;;;;;29.94;38.89;102314.63;5086054;28;19971;-81
2023/06/24 08:23:00;;;;;;;;;;;;;;;30.14;37.96;102307.41;5079893;28;19924;-81
2023/06/24 08:25:26;;;;;;;;;;;;;;;30.07;37.09;102313.53;5086775;28;19942;-80
2023/06/24 08:27:52;;;;;;;;;;;;;;;30.03;37.91;102307.84;5085374;28;19978;-80
2023/06/24 08:30:18;;;;;;;;;;;;;;;29.97;36.26;102322.22;5084140;28;20696;-81
2023/06/24 08:32:43;;;;;;;;;;;;;;;30.07;38.04;102325.38;5086587;28;20296;-81
2023/06/24 08:35:09;;;;;;;;;;;;;;;30.13;38.04;102327.91;5090142;28;19924;-80
2023/06/24 08:37:35;;;;;;;;;;;;;;;30.19;35.77;102321.84;5090338;28;20435;-80
2023/06/24 08:40:01;;;;;;;;;;;;;;;30.32;38.06;102326.22;5085340;28;20021;-79
2023/06/24 08:42:26;;;;;;;;;;;;;;;30.58;37.62;102322.31;5089238;28;19928;-81
2023/06/24 08:44:51;;;;;;;;;;;;;;;30.73;35.86;102324.41;5085200;28;20370;-81
2023/06/24 08:47:18;;;;;;;;;;;;;;;30.90;35.45;102323.34;5088816;28;19924;-80
2023/06/24 08:49:53;;;;;;;;;;;;;;;31.09;37.36;102318.00;5087687;28;19916;-81
2023/06/24 08:52:19;;;;;;;;;;;;;;;31.33;35.86;102324.63;5088746;28;20292;-80
2023/06/24 08:54:50;;;;;;;;;;;;;;;31.48;36.18;102326.66;5070667;28;19923;-82
2023/06/24 08:57:16;;;;;;;;;;;;;;;31.58;35.61;102315.03;5083783;28;19916;-82
2023/06/24 08:59:41;;;;;;;;;;;;;;;31.57;35.21;102313.44;5084928;28;19946;-82
2023/06/24 09:02:07;;;;;;;;;;;;;;;31.53;35.76;102313.34;5089395;28;19920;-82
2023/06/24 09:04:32;;;;;;;;;;;;;;;31.46;34.96;102313.16;5087090;28;20002;-82
2023/06/24 09:06:58;;;;;;;;;;;;;;;31.43;34.34;102307.53;5084754;28;20360;-79
2023/06/24 09:09:23;;;;;;;;;;;;;;;31.49;34.72;102312.44;5088371;28;19920;-81
2023/06/24 09:11:59;;;;;;;;;;;;;;;31.57;35.06;102303.16;5085568;28;19931;-82
2023/06/24 09:14:24;;;;;;;;;;;;;;;31.63;35.65;102311.22;5086923;28;19920;-82
2023/06/24 09:16:54;;;;;;;;;;;;;;;31.75;35.41;102317.53;5086869;28;20342;-81
2023/06/24 09:19:23;;;;;;;;;;;;;;;31.88;35.55;102318.25;5081996;28;19920;-80
2023/06/24 09:21:48;;;;;;;;;;;;;;;31.91;34.26;102320.31;5086337;28;19923;-82
2023/06/24 09:24:13;;;;;;;;;;;;;;;31.89;34.91;102319.06;5085069;28;20034;-81
2023/06/24 09:26:42;;;;;;;;;;;;;;;31.98;35.61;102311.41;5083263;28;19916;-82
2023/06/24 09:29:08;;;;;;;;;;;;;;;32.16;34.98;102319.00;5065573;28;20696;-80
2023/06/24 09:31:33;;;;;;;;;;;;;;;32.25;34.39;102323.56;5082893;28;20584;-79
2023/06/24 09:33:59;;;;;;;;;;;;;;;32.18;33.61;102321.41;5080853;28;19924;-81
2023/06/24 09:36:24;;;;;;;;;;;;;;;32.13;34.18;102324.44;5083522;28;19923;-82
2023/06/24 09:38:49;;;;;;;;;;;;;;;32.08;33.99;102325.53;5082503;28;19924;-80
2023/06/24 09:41:15;;;;;;;;;;;;;;;32.04;33.05;102321.84;5064654;28;19920;-81
2023/06/24 09:43:42;;;;;;;;;;;;;;;32.18;34.22;102321.41;5082316;28;20510;-79
2023/06/24 09:46:08;;;;;;;;;;;;;;;32.35;32.47;102317.50;5079732;28;19928;-80
2023/06/24 09:48:33;;;;;;;;;;;;;;;32.28;33.16;102322.88;5085913;28;20456;-80
2023/06/24 09:51:00;;;;;;;;;;;;;;;32.37;33.41;102318.75;5085103;28;19960;-82
2023/06/24 09:53:26;;;;;;;;;;;;;;;32.59;33.12;102313.69;5082993;28;19923;-81
2023/06/24 09:55:52;;;;;;;;;;;;;;;32.83;33.11;102312.69;5083403;28;19924;-81
2023/06/24 09:58:18;;;;;;;;;;;;;;;33.02;32.07;102304.38;5085807;28;20441;-82
2023/06/24 10:00:44;;;;;;;;;;;;;;;33.00;32.30;102310.28;5081082;28;19920;-82
2023/06/24 10:03:09;;;;;;;;;;;;;;;33.06;32.64;102302.50;5083554;28;19926;-81
2023/06/24 10:05:35;;;;;;;;;;;;;;;33.22;32.33;102313.53;5080482;28;19920;-79
2023/06/24 10:08:03;;;;;;;;;;;;;;;33.16;29.96;102303.88;5083937;28;20784;-81
2023/06/24 10:10:28;;;;;;;;;;;;;;;33.26;32.42;102309.66;5087249;28;20498;-81
2023/06/24 10:12:53;;;;;;;;;;;;;;;33.45;30.53;102300.53;5079254;28;19923;-81
2023/06/24 10:15:19;;;;;;;;;;;;;;;33.48;32.10;102304.53;5078045;28;19958;-81
2023/06/24 10:17:44;;;;;;;;;;;;;;;33.60;31.22;102301.63;5086875;28;19920;-81
2023/06/24 10:20:10;;;;;;;;;;;;;;;33.79;32.23;102293.22;5076951;28;20020;-81
2023/06/24 10:22:36;;;;;;;;;;;;;;;33.98;31.00;102305.50;5081617;28;19927;-80
2023/06/24 10:25:02;;;;;;;;;;;;;;;34.05;31.67;102302.81;5085635;28;20095;-82
2023/06/24 10:27:31;;;;;;;;;;;;;;;33.76;29.64;102305.09;5082007;28;19916;-78
2023/06/24 10:30:01;;;;;;;;;;;;;;;33.65;30.41;102304.06;5082298;28;19927;-82
2023/06/24 10:32:27;;;;;;;;;;;;;;;33.56;29.38;102300.72;5087209;28;20017;-80
2023/06/24 10:34:56;;;;;;;;;;;;;;;33.49;30.24;102297.81;5084791;28;19938;-79
2023/06/24 10:37:31;;;;;;;;;;;;;;;33.55;29.43;102293.56;5068759;28;19916;-79
2023/06/24 10:39:57;;;;;;;;;;;;;;;33.64;29.99;102294.13;5066125;28;19955;-81
2023/06/24 10:42:41;;;;;;;;;;;;;;;33.83;31.08;102296.88;5080258;28;20424;-81
2023/06/24 10:45:10;;;;;;;;;;;;;;;34.10;30.18;102292.19;5084262;28;21631;-81
2023/06/24 10:47:38;;;;;;;;;;;;;;;34.24;30.42;102292.41;5083384;28;20469;-82
2023/06/24 10:50:04;;;;;;;;;;;;;;;34.30;27.45;102284.56;5078100;28;19931;-81
2023/06/24 10:52:30;;;;;;;;;;;;;;;34.32;30.44;102289.75;5083505;28;19920;-80
2023/06/24 10:54:57;;;;;;;;;;;;;;;34.42;29.01;102289.94;5079611;28;20013;-81
2023/06/24 10:57:24;;;;;;;;;;;;;;;34.59;30.34;102285.00;5081558;28;19924;-81
2023/06/24 10:59:49;;;;;;;;;;;;;;;34.74;28.78;102279.25;5079428;28;19978;-81
2023/06/24 11:02:15;;;;;;;;;;;;;;;34.70;28.84;102280.41;5066801;28;19964;-79
2023/06/24 11:04:43;;;;;;;;;;;;;;;34.75;28.90;102277.28;5081375;28;19926;-83
2023/06/24 11:07:09;;;;;;;;;;;;;;;34.72;28.51;102276.06;5078048;28;19940;-79
2023/06/24 11:09:34;;;;;;;;;;;;;;;34.71;28.79;102287.56;5079361;28;21607;-82
2023/06/24 11:12:02;;;;;;;;;;;;;;;34.77;29.28;102275.72;5079920;28;20291;-81
2023/06/24 11:14:27;;;;;;;;;;;;;;;34.77;28.41;102272.94;5079056;28;19920;-79
2023/06/24 11:16:52;;;;;;;;;;;;;;;34.80;28.23;102277.75;5074860;28;20461;-80
2023/06/24 11:19:18;;;;;;;;;;;;;;;34.87;28.25;102282.66;5080910;28;20403;-82
2023/06/24 11:21:43;;;;;;;;;;;;;;;34.85;28.66;102276.66;5079785;28;19916;-80
2023/06/24 11:24:10;;;;;;;;;;;;;;;34.89;28.82;102277.50;5078897;28;20039;-81
2023/06/24 11:26:36;;;;;;;;;;;;;;;34.82;28.08;102277.34;5076571;28;20010;-81
2023/06/24 11:29:08;;;;;;;;;;;;;;;34.92;27.76;102276.75;5080138;28;20451;-84
2023/06/24 11:31:34;;;;;;;;;;;;;;;34.90;28.12;102279.09;5077493;28;19928;-81
2023/06/24 11:33:59;;;;;;;;;;;;;;;34.86;27.93;102277.47;5075479;28;19993;-81
2023/06/24 11:36:25;;;;;;;;;;;;;;;34.90;28.05;102272.72;5080281;28;19924;-81
2023/06/24 11:38:50;;;;;;;;;;;;;;;35.00;28.88;102278.41;5081910;28;20013;-82
2023/06/24 11:41:15;;;;;;;;;;;;;;;35.19;28.29;102276.66;5083239;28;20365;-79
2023/06/24 11:43:47;;;;;;;;;;;;;;;35.27;27.83;102275.56;5082238;28;19913;-79
2023/06/24 11:46:25;;;;;;;;;;;;;;;35.34;27.19;102281.19;5076529;28;19924;-81
2023/06/24 11:48:51;;;;;;;;;;;;;;;35.34;27.83;102281.19;5075641;28;19977;-81
2023/06/24 11:51:16;;;;;;;;;;;;;;;35.48;28.15;102280.59;5079491;28;19927;-80
2023/06/24 11:53:48;;;;;;;;;;;;;;;35.57;27.50;102281.09;5082700;28;20543;-81
2023/06/24 11:56:13;;;;;;;;;;;;;;;35.69;27.57;102281.59;5079411;28;19920;-82
2023/06/24 11:58:39;;;;;;;;;;;;;;;35.62;27.31;102273.16;5073497;28;19920;-80
2023/06/24 12:01:08;;;;;;;;;;;;;;;35.67;27.82;102272.81;5070746;28;19924;-81
2023/06/24 12:03:33;;;;;;;;;;;;;;;35.79;27.60;102274.53;5065049;28;19964;-81
2023/06/24 12:05:59;;;;;;;;;;;;;;;35.82;26.93;102273.75;5079173;28;20043;-81
2023/06/24 12:08:24;;;;;;;;;;;;;;;35.82;26.07;102278.53;5077749;28;19924;-80
2023/06/24 12:10:50;;;;;;;;;;;;;;;35.76;27.00;102274.50;5069175;28;20289;-78
2023/06/24 12:13:15;;;;;;;;;;;;;;;35.76;27.41;102271.72;5074873;28;19920;-80
2023/06/24 12:15:41;;;;;;;;;;;;;;;35.93;27.20;102262.72;5084035;28;20137;-81
2023/06/24 12:18:06;;;;;;;;;;;;;;;35.94;26.84;102270.69;5079755;28;20640;-82
2023/06/24 12:20:32;;;;;;;;;;;;;;;35.98;26.67;102265.94;5073129;28;20021;-81
2023/06/24 12:22:58;;;;;;;;;;;;;;;36.02;25.97;102263.97;5071488;28;20069;-81
2023/06/24 12:25:23;;;;;;;;;;;;;;;35.92;24.16;102263.91;5076544;28;19920;-81
2023/06/24 12:27:49;;;;;;;;;;;;;;;35.92;26.05;102261.13;5080273;28;20250;-81
2023/06/24 12:30:16;;;;;;;;;;;;;;;35.94;26.15;102262.34;5080540;28;19986;-81